sensor_id;sensor_type;location;lat;lon;timestamp;pressure;altitude;pressure_sealevel;temperature;humidity
29505;BME280;16452;54.174;12.092;2022-09-13T00:00:39;100848.28;;;19.78;83.67
29505;BME280;16452;54.174;12.092;2022-09-13T00:03:07;100845.28;;;19.52;84.25
29505;BME280;16452;54.174;12.092;2022-09-13T00:05:34;100837.66;;;19.49;84.23
29505;BME280;16452;54.174;12.092;2022-09-13T00:08:01;100827.91;;;19.50;83.91
29505;BME280;16452;54.174;12.092;2022-09-13T00:10:27;100822.63;;;19.50;84.41
29505;BME280;16452;54.174;12.092;2022-09-13T00:12:54;100820.38;;;19.45;84.27
29505;BME280;16452;54.174;12.092;2022-09-13T00:15:20;100822.34;;;19.53;83.87
29505;BME280;16452;54.174;12.092;2022-09-13T00:17:46;100819.44;;;19.56;83.40
29505;BME280;16452;54.174;12.092;2022-09-13T00:20:12;100820.28;;;19.76;83.13
29505;BME280;16452;54.174;12.092;2022-09-13T00:22:37;100812.09;;;19.79;82.96
29505;BME280;16452;54.174;12.092;2022-09-13T00:25:05;100809.75;;;19.85;82.90
29505;BME280;16452;54.174;12.092;2022-09-13T00:27:33;100814.31;;;19.93;82.38
29505;BME280;16452;54.174;12.092;2022-09-13T00:29:59;100813.50;;;19.73;82.78
29505;BME280;16452;54.174;12.092;2022-09-13T00:32:25;100806.81;;;19.79;83.49
29505;BME280;16452;54.174;12.092;2022-09-13T00:34:51;100805.97;;;19.88;82.41
29505;BME280;16452;54.174;12.092;2022-09-13T00:37:16;100801.38;;;19.71;82.53
29505;BME280;16452;54.174;12.092;2022-09-13T00:39:42;100792.31;;;19.92;82.28
29505;BME280;16452;54.174;12.092;2022-09-13T00:42:12;100786.63;;;20.06;81.62
29505;BME280;16452;54.174;12.092;2022-09-13T00:47:48;100777.88;;;19.96;81.56
29505;BME280;16452;54.174;12.092;2022-09-13T00:50:44;100780.22;;;20.19;80.70
29505;BME280;16452;54.174;12.092;2022-09-13T00:53:29;100778.41;;;20.00;81.75
29505;BME280;16452;54.174;12.092;2022-09-13T00:56:12;100767.13;;;19.98;80.26
29505;BME280;16452;54.174;12.092;2022-09-13T00:58:55;100763.38;;;19.81;81.34
29505;BME280;16452;54.174;12.092;2022-09-13T01:01:28;100760.88;;;19.89;80.84
29505;BME280;16452;54.174;12.092;2022-09-13T01:03:59;100758.50;;;19.86;81.60
29505;BME280;16452;54.174;12.092;2022-09-13T01:06:29;100750.03;;;20.02;81.25
29505;BME280;16452;54.174;12.092;2022-09-13T01:08:58;100740.84;;;19.87;81.95
29505;BME280;16452;54.174;12.092;2022-09-13T01:14:00;100739.19;;;19.86;81.73
29505;BME280;16452;54.174;12.092;2022-09-13T01:16:26;100729.84;;;19.72;82.39
29505;BME280;16452;54.174;12.092;2022-09-13T01:18:52;100734.56;;;19.88;82.50
29505;BME280;16452;54.174;12.092;2022-09-13T01:22:04;100731.63;;;20.10;81.63
29505;BME280;16452;54.174;12.092;2022-09-13T01:33:42;100703.84;;;19.77;82.20
29505;BME280;16452;54.174;12.092;2022-09-13T01:36:53;100699.63;;;19.94;81.21
29505;BME280;16452;54.174;12.092;2022-09-13T01:39:48;100705.34;;;19.89;81.54
29505;BME280;16452;54.174;12.092;2022-09-13T01:51:37;100681.97;;;19.85;81.23
29505;BME280;16452;54.174;12.092;2022-09-13T01:59:50;100682.13;;;19.45;84.91
29505;BME280;16452;54.174;12.092;2022-09-13T02:02:33;100678.38;;;19.66;84.88
29505;BME280;16452;54.174;12.092;2022-09-13T02:05:30;100674.59;;;19.69;85.37
29505;BME280;16452;54.174;12.092;2022-09-13T02:08:37;100676.28;;;19.60;87.54
29505;BME280;16452;54.174;12.092;2022-09-13T02:11:13;100667.66;;;19.58;87.64
29505;BME280;16452;54.174;12.092;2022-09-13T02:13:57;100666.25;;;19.45;88.43
29505;BME280;16452;54.174;12.092;2022-09-13T02:16:44;100661.44;;;19.50;88.51
29505;BME280;16452;54.174;12.092;2022-09-13T02:19:19;100674.00;;;19.17;90.48
29505;BME280;16452;54.174;12.092;2022-09-13T02:21:51;100679.88;;;19.40;89.96
29505;BME280;16452;54.174;12.092;2022-09-13T02:24:28;100678.50;;;19.36;91.30
29505;BME280;16452;54.174;12.092;2022-09-13T02:27:02;100665.25;;;19.17;93.18
29505;BME280;16452;54.174;12.092;2022-09-13T02:29:30;100666.88;;;18.89;94.84
29505;BME280;16452;54.174;12.092;2022-09-13T02:32:20;100647.47;;;19.09;94.29
29505;BME280;16452;54.174;12.092;2022-09-13T02:34:54;100650.78;;;19.11;94.42
29505;BME280;16452;54.174;12.092;2022-09-13T02:37:24;100655.91;;;18.94;94.58
29505;BME280;16452;54.174;12.092;2022-09-13T02:40:04;100647.25;;;18.72;95.69
29505;BME280;16452;54.174;12.092;2022-09-13T02:42:41;100645.88;;;18.68;97.34
29505;BME280;16452;54.174;12.092;2022-09-13T02:45:11;100637.41;;;18.84;96.62
29505;BME280;16452;54.174;12.092;2022-09-13T02:47:55;100627.31;;;19.08;95.18
29505;BME280;16452;54.174;12.092;2022-09-13T02:51:05;100613.97;;;19.19;94.29
29505;BME280;16452;54.174;12.092;2022-09-13T02:54:14;100606.44;;;18.86;95.34
29505;BME280;16452;54.174;12.092;2022-09-13T02:59:20;100605.78;;;18.54;96.96
29505;BME280;16452;54.174;12.092;2022-09-13T03:02:04;100595.88;;;19.05;95.82
29505;BME280;16452;54.174;12.092;2022-09-13T03:04:33;100588.91;;;18.75;95.19
29505;BME280;16452;54.174;12.092;2022-09-13T03:07:00;100576.81;;;18.82;95.95
29505;BME280;16452;54.174;12.092;2022-09-13T03:09:26;100568.50;;;18.87;95.46
29505;BME280;16452;54.174;12.092;2022-09-13T03:13:00;100565.16;;;18.95;93.85
29505;BME280;16452;54.174;12.092;2022-09-13T03:16:23;100562.53;;;18.95;92.99
29505;BME280;16452;54.174;12.092;2022-09-13T03:22:31;100574.72;;;18.57;96.11
29505;BME280;16452;54.174;12.092;2022-09-13T03:25:28;100559.06;;;19.04;94.25
29505;BME280;16452;54.174;12.092;2022-09-13T03:28:33;100550.47;;;18.92;95.00
29505;BME280;16452;54.174;12.092;2022-09-13T03:31:34;100543.38;;;18.93;95.34
29505;BME280;16452;54.174;12.092;2022-09-13T03:34:41;100536.56;;;18.90;94.31
29505;BME280;16452;54.174;12.092;2022-09-13T03:39:57;100549.19;;;18.96;93.97
29505;BME280;16452;54.174;12.092;2022-09-13T03:44:59;100534.75;;;19.10;94.20
29505;BME280;16452;54.174;12.092;2022-09-13T03:47:29;100538.50;;;19.07;94.29
29505;BME280;16452;54.174;12.092;2022-09-13T03:49:57;100541.84;;;18.80;95.81
29505;BME280;16452;54.174;12.092;2022-09-13T03:52:24;100537.09;;;18.94;94.31
29505;BME280;16452;54.174;12.092;2022-09-13T03:54:52;100526.81;;;18.91;94.24
29505;BME280;16452;54.174;12.092;2022-09-13T03:57:21;100521.28;;;19.03;93.78
29505;BME280;16452;54.174;12.092;2022-09-13T03:59:50;100521.81;;;18.97;93.76
29505;BME280;16452;54.174;12.092;2022-09-13T04:02:18;100530.69;;;19.06;93.32
29505;BME280;16452;54.174;12.092;2022-09-13T04:04:45;100521.66;;;18.99;93.53
29505;BME280;16452;54.174;12.092;2022-09-13T04:07:15;100502.50;;;18.87;94.68
29505;BME280;16452;54.174;12.092;2022-09-13T04:09:41;100509.44;;;19.07;92.95
29505;BME280;16452;54.174;12.092;2022-09-13T04:12:07;100509.97;;;19.11;93.75
29505;BME280;16452;54.174;12.092;2022-09-13T04:14:36;100494.56;;;19.16;93.15
29505;BME280;16452;54.174;12.092;2022-09-13T04:17:02;100500.53;;;19.18;92.63
29505;BME280;16452;54.174;12.092;2022-09-13T04:19:28;100493.47;;;19.09;93.40
29505;BME280;16452;54.174;12.092;2022-09-13T04:21:54;100516.25;;;19.19;92.96
29505;BME280;16452;54.174;12.092;2022-09-13T04:24:25;100513.97;;;19.34;92.96
29505;BME280;16452;54.174;12.092;2022-09-13T04:26:52;100514.44;;;19.10;93.34
29505;BME280;16452;54.174;12.092;2022-09-13T04:29:19;100511.69;;;19.02;94.28
29505;BME280;16452;54.174;12.092;2022-09-13T04:31:46;100505.97;;;18.87;93.78
29505;BME280;16452;54.174;12.092;2022-09-13T04:34:13;100501.09;;;19.12;93.01
29505;BME280;16452;54.174;12.092;2022-09-13T04:36:39;100503.34;;;18.97;93.72
29505;BME280;16452;54.174;12.092;2022-09-13T04:39:05;100514.59;;;18.90;94.45
29505;BME280;16452;54.174;12.092;2022-09-13T04:41:31;100513.03;;;18.58;95.44
29505;BME280;16452;54.174;12.092;2022-09-13T04:44:00;100509.88;;;18.83;95.19
29505;BME280;16452;54.174;12.092;2022-09-13T04:46:26;100504.47;;;18.85;95.85
29505;BME280;16452;54.174;12.092;2022-09-13T04:48:52;100501.38;;;18.90;95.17
29505;BME280;16452;54.174;12.092;2022-09-13T04:51:19;100508.34;;;19.10;94.11
29505;BME280;16452;54.174;12.092;2022-09-13T04:53:51;100519.16;;;19.07;94.67
29505;BME280;16452;54.174;12.092;2022-09-13T04:56:21;100525.44;;;18.96;96.36
29505;BME280;16452;54.174;12.092;2022-09-13T04:58:49;100523.47;;;18.88;97.94
29505;BME280;16452;54.174;12.092;2022-09-13T05:01:15;100530.28;;;18.72;99.73
29505;BME280;16452;54.174;12.092;2022-09-13T05:03:41;100514.44;;;19.01;98.23
29505;BME280;16452;54.174;12.092;2022-09-13T05:06:11;100515.97;;;18.94;99.90
29505;BME280;16452;54.174;12.092;2022-09-13T05:08:37;100506.25;;;18.94;99.74
29505;BME280;16452;54.174;12.092;2022-09-13T05:11:04;100505.00;;;18.98;99.86
29505;BME280;16452;54.174;12.092;2022-09-13T05:13:30;100500.81;;;19.05;99.94
29505;BME280;16452;54.174;12.092;2022-09-13T05:15:58;100505.97;;;19.07;99.91
29505;BME280;16452;54.174;12.092;2022-09-13T05:18:26;100508.59;;;18.87;100.00
29505;BME280;16452;54.174;12.092;2022-09-13T05:20:56;100507.09;;;18.85;100.00
29505;BME280;16452;54.174;12.092;2022-09-13T05:23:24;100502.06;;;18.82;100.00
29505;BME280;16452;54.174;12.092;2022-09-13T05:26:03;100502.63;;;18.76;100.00
29505;BME280;16452;54.174;12.092;2022-09-13T05:28:33;100505.84;;;18.79;100.00
29505;BME280;16452;54.174;12.092;2022-09-13T05:31:03;100499.19;;;18.85;100.00
29505;BME280;16452;54.174;12.092;2022-09-13T05:33:33;100496.38;;;18.77;100.00
29505;BME280;16452;54.174;12.092;2022-09-13T05:36:05;100488.03;;;19.01;100.00
29505;BME280;16452;54.174;12.092;2022-09-13T05:38:32;100483.34;;;18.85;100.00
29505;BME280;16452;54.174;12.092;2022-09-13T05:41:01;100478.63;;;18.79;100.00
29505;BME280;16452;54.174;12.092;2022-09-13T05:43:30;100482.34;;;18.76;100.00
29505;BME280;16452;54.174;12.092;2022-09-13T05:46:04;100483.47;;;18.55;100.00
29505;BME280;16452;54.174;12.092;2022-09-13T05:48:31;100480.81;;;18.83;100.00
29505;BME280;16452;54.174;12.092;2022-09-13T05:51:07;100485.81;;;18.77;100.00
29505;BME280;16452;54.174;12.092;2022-09-13T05:53:35;100476.25;;;18.85;100.00
29505;BME280;16452;54.174;12.092;2022-09-13T05:56:05;100477.22;;;18.84;100.00
29505;BME280;16452;54.174;12.092;2022-09-13T05:58:31;100479.31;;;18.81;100.00
29505;BME280;16452;54.174;12.092;2022-09-13T06:00:57;100473.59;;;18.95;100.00
29505;BME280;16452;54.174;12.092;2022-09-13T06:03:23;100471.34;;;19.00;100.00
29505;BME280;16452;54.174;12.092;2022-09-13T06:05:49;100470.56;;;18.61;100.00
29505;BME280;16452;54.174;12.092;2022-09-13T06:08:18;100473.47;;;18.97;100.00
29505;BME280;16452;54.174;12.092;2022-09-13T06:11:11;100474.44;;;18.86;100.00
29505;BME280;16452;54.174;12.092;2022-09-13T06:13:38;100482.22;;;18.59;100.00
29505;BME280;16452;54.174;12.092;2022-09-13T06:16:06;100476.53;;;18.92;100.00
29505;BME280;16452;54.174;12.092;2022-09-13T06:18:34;100483.72;;;18.52;100.00
29505;BME280;16452;54.174;12.092;2022-09-13T06:21:06;100476.13;;;18.68;100.00
29505;BME280;16452;54.174;12.092;2022-09-13T06:23:32;100470.56;;;18.61;100.00
29505;BME280;16452;54.174;12.092;2022-09-13T06:26:07;100467.09;;;18.80;100.00
29505;BME280;16452;54.174;12.092;2022-09-13T06:28:34;100479.00;;;18.94;100.00
29505;BME280;16452;54.174;12.092;2022-09-13T06:31:09;100496.25;;;19.07;100.00
29505;BME280;16452;54.174;12.092;2022-09-13T06:33:38;100499.59;;;19.09;100.00
29505;BME280;16452;54.174;12.092;2022-09-13T06:36:11;100492.19;;;19.13;100.00
29505;BME280;16452;54.174;12.092;2022-09-13T06:38:38;100496.09;;;19.09;100.00
29505;BME280;16452;54.174;12.092;2022-09-13T06:41:14;100488.16;;;18.99;100.00
29505;BME280;16452;54.174;12.092;2022-09-13T06:43:40;100496.63;;;19.22;100.00
29505;BME280;16452;54.174;12.092;2022-09-13T06:46:17;100486.59;;;19.35;100.00
29505;BME280;16452;54.174;12.092;2022-09-13T06:48:44;100482.69;;;19.39;100.00
29505;BME280;16452;54.174;12.092;2022-09-13T06:51:13;100485.25;;;19.21;100.00
29505;BME280;16452;54.174;12.092;2022-09-13T06:53:40;100488.69;;;19.32;100.00
29505;BME280;16452;54.174;12.092;2022-09-13T06:56:14;100490.47;;;19.41;100.00
29505;BME280;16452;54.174;12.092;2022-09-13T06:58:44;100485.19;;;19.41;100.00
29505;BME280;16452;54.174;12.092;2022-09-13T07:01:15;100488.06;;;19.57;100.00
29505;BME280;16452;54.174;12.092;2022-09-13T07:03:47;100488.13;;;19.47;100.00
29505;BME280;16452;54.174;12.092;2022-09-13T07:06:19;100489.09;;;19.37;100.00
29505;BME280;16452;54.174;12.092;2022-09-13T07:08:47;100492.25;;;19.40;100.00
29505;BME280;16452;54.174;12.092;2022-09-13T07:11:15;100490.63;;;19.49;100.00
29505;BME280;16452;54.174;12.092;2022-09-13T07:13:49;100489.47;;;19.51;100.00
29505;BME280;16452;54.174;12.092;2022-09-13T07:16:16;100499.66;;;19.46;100.00
29505;BME280;16452;54.174;12.092;2022-09-13T07:18:43;100497.72;;;19.48;100.00
29505;BME280;16452;54.174;12.092;2022-09-13T07:21:10;100497.84;;;19.56;100.00
29505;BME280;16452;54.174;12.092;2022-09-13T07:23:38;100494.38;;;19.83;100.00
29505;BME280;16452;54.174;12.092;2022-09-13T07:26:06;100500.84;;;19.98;100.00
29505;BME280;16452;54.174;12.092;2022-09-13T07:28:39;100494.47;;;20.19;100.00
29505;BME280;16452;54.174;12.092;2022-09-13T07:31:28;100491.59;;;20.39;100.00
29505;BME280;16452;54.174;12.092;2022-09-13T07:33:56;100491.91;;;20.27;100.00
29505;BME280;16452;54.174;12.092;2022-09-13T07:36:23;100486.31;;;20.57;100.00
29505;BME280;16452;54.174;12.092;2022-09-13T07:38:49;100490.31;;;20.43;100.00
29505;BME280;16452;54.174;12.092;2022-09-13T07:41:18;100497.22;;;20.54;100.00
29505;BME280;16452;54.174;12.092;2022-09-13T07:43:45;100497.25;;;20.62;100.00
29505;BME280;16452;54.174;12.092;2022-09-13T07:46:14;100494.00;;;20.86;100.00
29505;BME280;16452;54.174;12.092;2022-09-13T07:48:42;100499.53;;;20.75;99.88
29505;BME280;16452;54.174;12.092;2022-09-13T07:51:12;100499.69;;;20.91;99.01
29505;BME280;16452;54.174;12.092;2022-09-13T07:53:40;100491.50;;;21.02;97.95
29505;BME280;16452;54.174;12.092;2022-09-13T07:56:09;100493.00;;;21.05;97.23
29505;BME280;16452;54.174;12.092;2022-09-13T07:58:38;100487.25;;;21.09;97.03
29505;BME280;16452;54.174;12.092;2022-09-13T08:01:38;100485.91;;;21.05;95.58
29505;BME280;16452;54.174;12.092;2022-09-13T08:04:11;100491.56;;;21.28;95.13
29505;BME280;16452;54.174;12.092;2022-09-13T08:06:38;100491.44;;;21.38;94.80
29505;BME280;16452;54.174;12.092;2022-09-13T08:09:07;100488.72;;;21.55;93.10
29505;BME280;16452;54.174;12.092;2022-09-13T08:11:36;100491.72;;;21.86;91.09
29505;BME280;16452;54.174;12.092;2022-09-13T08:14:04;100491.84;;;21.77;90.97
29505;BME280;16452;54.174;12.092;2022-09-13T08:16:30;100486.22;;;21.80;90.02
29505;BME280;16452;54.174;12.092;2022-09-13T08:18:59;100486.69;;;22.09;88.63
29505;BME280;16452;54.174;12.092;2022-09-13T08:21:38;100484.25;;;22.24;87.29
29505;BME280;16452;54.174;12.092;2022-09-13T08:24:07;100479.78;;;22.24;86.14
29505;BME280;16452;54.174;12.092;2022-09-13T08:26:38;100480.63;;;21.91;86.91
29505;BME280;16452;54.174;12.092;2022-09-13T08:29:05;100491.66;;;22.04;86.64
29505;BME280;16452;54.174;12.092;2022-09-13T08:31:32;100491.53;;;22.22;85.90
29505;BME280;16452;54.174;12.092;2022-09-13T08:33:58;100490.16;;;22.60;84.79
29505;BME280;16452;54.174;12.092;2022-09-13T08:36:26;100493.97;;;22.73;83.60
29505;BME280;16452;54.174;12.092;2022-09-13T08:38:55;100490.78;;;22.62;83.21
29505;BME280;16452;54.174;12.092;2022-09-13T08:41:58;100493.31;;;22.96;82.97
29505;BME280;16452;54.174;12.092;2022-09-13T08:44:44;100497.59;;;22.56;82.49
29505;BME280;16452;54.174;12.092;2022-09-13T08:47:34;100499.09;;;22.67;82.59
29505;BME280;16452;54.174;12.092;2022-09-13T08:50:20;100503.56;;;22.42;82.76
29505;BME280;16452;54.174;12.092;2022-09-13T08:55:46;100514.59;;;22.21;84.39
29505;BME280;16452;54.174;12.092;2022-09-13T09:01:07;100516.38;;;22.04;84.43
29505;BME280;16452;54.174;12.092;2022-09-13T09:03:48;100503.88;;;22.39;83.42
29505;BME280;16452;54.174;12.092;2022-09-13T09:06:17;100502.94;;;22.06;83.40
29505;BME280;16452;54.174;12.092;2022-09-13T09:08:50;100509.81;;;22.25;82.79
29505;BME280;16452;54.174;12.092;2022-09-13T09:14:51;100521.72;;;22.13;83.89
29505;BME280;16452;54.174;12.092;2022-09-13T09:17:28;100524.28;;;21.96;84.39
29505;BME280;16452;54.174;12.092;2022-09-13T09:20:30;100528.94;;;22.02;84.62
29505;BME280;16452;54.174;12.092;2022-09-13T09:23:06;100516.53;;;22.53;83.27
29505;BME280;16452;54.174;12.092;2022-09-13T09:25:33;100506.72;;;22.62;82.58
29505;BME280;16452;54.174;12.092;2022-09-13T09:28:00;100520.78;;;22.30;83.37
29505;BME280;16452;54.174;12.092;2022-09-13T09:31:01;100522.16;;;22.66;82.38
29505;BME280;16452;54.174;12.092;2022-09-13T09:33:41;100509.88;;;22.57;81.95
29505;BME280;16452;54.174;12.092;2022-09-13T09:36:28;100504.41;;;22.67;81.50
29505;BME280;16452;54.174;12.092;2022-09-13T09:38:56;100510.63;;;22.25;80.92
29505;BME280;16452;54.174;12.092;2022-09-13T09:41:31;100514.78;;;22.28;80.39
29505;BME280;16452;54.174;12.092;2022-09-13T09:44:22;100510.66;;;22.33;79.46
29505;BME280;16452;54.174;12.092;2022-09-13T09:47:19;100522.59;;;22.29;78.36
29505;BME280;16452;54.174;12.092;2022-09-13T09:52:56;100519.78;;;22.39;77.96
29505;BME280;16452;54.174;12.092;2022-09-13T09:56:14;100525.91;;;22.31;78.97
29505;BME280;16452;54.174;12.092;2022-09-13T09:58:45;100530.38;;;22.31;80.36
29505;BME280;16452;54.174;12.092;2022-09-13T10:01:31;100533.72;;;22.33;80.41
29505;BME280;16452;54.174;12.092;2022-09-13T10:06:39;100540.84;;;22.32;80.71
29505;BME280;16452;54.174;12.092;2022-09-13T10:09:20;100542.41;;;22.67;78.71
29505;BME280;16452;54.174;12.092;2022-09-13T10:11:56;100537.75;;;22.61;77.75
29505;BME280;16452;54.174;12.092;2022-09-13T10:14:42;100542.53;;;22.49;77.44
29505;BME280;16452;54.174;12.092;2022-09-13T10:17:26;100540.22;;;22.46;77.25
29505;BME280;16452;54.174;12.092;2022-09-13T10:20:22;100527.06;;;22.29;77.88
29505;BME280;16452;54.174;12.092;2022-09-13T10:25:42;100534.59;;;22.49;76.84
29505;BME280;16452;54.174;12.092;2022-09-13T10:28:16;100532.63;;;22.60;76.44
29505;BME280;16452;54.174;12.092;2022-09-13T10:30:51;100540.88;;;22.48;76.54
29505;BME280;16452;54.174;12.092;2022-09-13T10:33:33;100527.66;;;22.65;76.42
29505;BME280;16452;54.174;12.092;2022-09-13T10:36:14;100523.84;;;22.59;75.42
29505;BME280;16452;54.174;12.092;2022-09-13T10:38:55;100520.81;;;22.46;73.87
29505;BME280;16452;54.174;12.092;2022-09-13T10:41:48;100532.28;;;22.63;74.02
29505;BME280;16452;54.174;12.092;2022-09-13T10:44:34;100523.00;;;22.67;73.47
29505;BME280;16452;54.174;12.092;2022-09-13T10:47:09;100516.41;;;22.79;72.91
29505;BME280;16452;54.174;12.092;2022-09-13T10:49:50;100519.41;;;22.76;73.99
29505;BME280;16452;54.174;12.092;2022-09-13T10:52:41;100522.50;;;22.63;72.71
29505;BME280;16452;54.174;12.092;2022-09-13T10:55:22;100521.16;;;22.67;73.87
29505;BME280;16452;54.174;12.092;2022-09-13T11:01:16;100527.06;;;22.87;72.03
29505;BME280;16452;54.174;12.092;2022-09-13T11:04:21;100520.00;;;22.53;70.83
29505;BME280;16452;54.174;12.092;2022-09-13T11:07:13;100522.84;;;22.68;72.05
29505;BME280;16452;54.174;12.092;2022-09-13T11:09:52;100523.84;;;22.59;72.19
29505;BME280;16452;54.174;12.092;2022-09-13T11:15:45;100524.28;;;22.38;71.36
29505;BME280;16452;54.174;12.092;2022-09-13T11:30:23;100519.16;;;22.45;67.80
29505;BME280;16452;54.174;12.092;2022-09-13T11:33:23;100519.47;;;22.42;68.58
29505;BME280;16452;54.174;12.092;2022-09-13T11:36:23;100520.28;;;22.42;68.79
29505;BME280;16452;54.174;12.092;2022-09-13T11:42:21;100515.22;;;22.65;67.70
29505;BME280;16452;54.174;12.092;2022-09-13T11:45:17;100519.66;;;22.57;67.52
29505;BME280;16452;54.174;12.092;2022-09-13T11:56:20;100518.34;;;22.61;66.73
29505;BME280;16452;54.174;12.092;2022-09-13T11:59:15;100527.13;;;22.45;67.68
29505;BME280;16452;54.174;12.092;2022-09-13T12:01:56;100527.56;;;22.32;68.68
29505;BME280;16452;54.174;12.092;2022-09-13T12:07:48;100524.06;;;22.24;68.73
29505;BME280;16452;54.174;12.092;2022-09-13T12:10:25;100520.44;;;22.33;68.62
29505;BME280;16452;54.174;12.092;2022-09-13T12:12:55;100519.00;;;22.54;68.38
29505;BME280;16452;54.174;12.092;2022-09-13T12:15:39;100512.59;;;22.81;67.37
29505;BME280;16452;54.174;12.092;2022-09-13T12:18:45;100506.63;;;22.87;66.25
29505;BME280;16452;54.174;12.092;2022-09-13T12:21:22;100519.59;;;22.82;67.53
29505;BME280;16452;54.174;12.092;2022-09-13T12:24:16;100511.59;;;22.74;68.20
29505;BME280;16452;54.174;12.092;2022-09-13T12:27:06;100500.13;;;22.74;66.90
29505;BME280;16452;54.174;12.092;2022-09-13T12:29:46;100502.09;;;22.64;67.59
29505;BME280;16452;54.174;12.092;2022-09-13T12:32:15;100500.09;;;22.58;69.06
29505;BME280;16452;54.174;12.092;2022-09-13T12:35:08;100501.59;;;22.68;67.76
29505;BME280;16452;54.174;12.092;2022-09-13T12:40:42;100500.59;;;22.69;68.25
29505;BME280;16452;54.174;12.092;2022-09-13T12:43:49;100486.69;;;23.08;67.64
29505;BME280;16452;54.174;12.092;2022-09-13T12:47:06;100481.22;;;22.93;67.00
29505;BME280;16452;54.174;12.092;2022-09-13T12:56:02;100491.78;;;22.52;69.35
29505;BME280;16452;54.174;12.092;2022-09-13T12:58:45;100484.16;;;22.58;69.83
29505;BME280;16452;54.174;12.092;2022-09-13T13:01:20;100491.63;;;22.70;69.50
29505;BME280;16452;54.174;12.092;2022-09-13T13:04:07;100488.97;;;22.62;70.20
29505;BME280;16452;54.174;12.092;2022-09-13T13:12:01;100492.06;;;22.33;70.31
29505;BME280;16452;54.174;12.092;2022-09-13T13:28:50;100485.34;;;22.96;65.94
29505;BME280;16452;54.174;12.092;2022-09-13T13:36:41;100483.50;;;23.12;65.33
29505;BME280;16452;54.174;12.092;2022-09-13T13:41:54;100475.03;;;23.25;62.91
29505;BME280;16452;54.174;12.092;2022-09-13T13:46:49;100467.59;;;22.80;63.05
29505;BME280;16452;54.174;12.092;2022-09-13T14:14:55;100465.91;;;22.95;65.86
29505;BME280;16452;54.174;12.092;2022-09-13T14:18:05;100468.75;;;22.85;67.10
29505;BME280;16452;54.174;12.092;2022-09-13T14:20:36;100458.78;;;22.71;68.79
29505;BME280;16452;54.174;12.092;2022-09-13T14:23:18;100468.25;;;22.90;68.42
29505;BME280;16452;54.174;12.092;2022-09-13T14:25:45;100460.78;;;22.85;68.31
29505;BME280;16452;54.174;12.092;2022-09-13T14:28:17;100463.59;;;22.84;68.33
29505;BME280;16452;54.174;12.092;2022-09-13T14:30:45;100459.91;;;22.44;69.79
29505;BME280;16452;54.174;12.092;2022-09-13T14:33:36;100453.94;;;22.67;69.07
29505;BME280;16452;54.174;12.092;2022-09-13T14:36:07;100457.09;;;22.62;69.53
29505;BME280;16452;54.174;12.092;2022-09-13T14:38:51;100458.91;;;22.62;69.47
29505;BME280;16452;54.174;12.092;2022-09-13T14:41:22;100455.75;;;22.66;69.31
29505;BME280;16452;54.174;12.092;2022-09-13T14:43:53;100455.94;;;22.57;69.66
29505;BME280;16452;54.174;12.092;2022-09-13T14:46:33;100453.09;;;22.66;70.39
29505;BME280;16452;54.174;12.092;2022-09-13T14:49:08;100457.94;;;22.63;71.26
29505;BME280;16452;54.174;12.092;2022-09-13T14:51:46;100451.44;;;22.49;72.35
29505;BME280;16452;54.174;12.092;2022-09-13T14:54:27;100449.47;;;22.59;72.40
29505;BME280;16452;54.174;12.092;2022-09-13T14:56:59;100447.59;;;22.43;73.52
29505;BME280;16452;54.174;12.092;2022-09-13T15:02:26;100456.53;;;22.26;74.77
29505;BME280;16452;54.174;12.092;2022-09-13T15:04:58;100446.94;;;22.33;74.81
29505;BME280;16452;54.174;12.092;2022-09-13T15:07:33;100445.94;;;22.42;74.31
29505;BME280;16452;54.174;12.092;2022-09-13T15:17:58;100448.56;;;22.26;74.24
29505;BME280;16452;54.174;12.092;2022-09-13T15:20:29;100446.91;;;22.25;73.81
29505;BME280;16452;54.174;12.092;2022-09-13T15:22:55;100458.97;;;21.95;73.72
29505;BME280;16452;54.174;12.092;2022-09-13T15:25:28;100449.22;;;22.12;73.64
29505;BME280;16452;54.174;12.092;2022-09-13T15:27:56;100454.53;;;22.12;74.10
29505;BME280;16452;54.174;12.092;2022-09-13T15:30:30;100442.44;;;22.18;73.14
29505;BME280;16452;54.174;12.092;2022-09-13T15:33:28;100452.75;;;22.45;73.29
29505;BME280;16452;54.174;12.092;2022-09-13T15:36:26;100443.97;;;22.44;73.57
29505;BME280;16452;54.174;12.092;2022-09-13T15:41:37;100442.25;;;22.19;73.82
29505;BME280;16452;54.174;12.092;2022-09-13T15:44:08;100438.66;;;22.44;73.87
29505;BME280;16452;54.174;12.092;2022-09-13T15:46:45;100432.19;;;22.47;73.76
29505;BME280;16452;54.174;12.092;2022-09-13T15:49:17;100441.66;;;22.49;72.96
29505;BME280;16452;54.174;12.092;2022-09-13T15:51:44;100438.66;;;22.44;72.07
29505;BME280;16452;54.174;12.092;2022-09-13T15:54:12;100433.84;;;22.40;72.27
29505;BME280;16452;54.174;12.092;2022-09-13T15:56:43;100427.69;;;22.31;71.73
29505;BME280;16452;54.174;12.092;2022-09-13T15:59:14;100431.00;;;22.25;69.79
29505;BME280;16452;54.174;12.092;2022-09-13T16:01:42;100429.38;;;22.40;68.90
29505;BME280;16452;54.174;12.092;2022-09-13T16:04:09;100428.88;;;22.53;68.34
29505;BME280;16452;54.174;12.092;2022-09-13T16:06:36;100430.03;;;22.59;66.90
29505;BME280;16452;54.174;12.092;2022-09-13T16:09:16;100425.56;;;22.67;66.62
29505;BME280;16452;54.174;12.092;2022-09-13T16:11:44;100435.50;;;22.33;66.90